createdAt,value
2023-03-06T00:00:28.457Z,9.73
2023-03-06T00:02:55.034Z,10.13
2023-03-06T00:05:24.190Z,10.15
2023-03-06T00:08:06.927Z,9.43
2023-03-06T00:10:33.781Z,7.78
2023-03-06T00:13:11.277Z,7.60
2023-03-06T00:15:37.905Z,8.90
2023-03-06T00:18:05.702Z,8.10
2023-03-06T00:20:33.504Z,8.88
2023-03-06T00:23:00.343Z,9.15
2023-03-06T00:25:27.096Z,8.90
2023-03-06T00:27:56.371Z,7.65
2023-03-06T00:30:24.603Z,8.25
2023-03-06T00:32:53.005Z,9.38
2023-03-06T00:35:19.916Z,13.02
2023-03-06T00:37:46.620Z,8.82
2023-03-06T00:40:16.364Z,11.10
2023-03-06T00:42:43.735Z,9.43
2023-03-06T00:45:13.480Z,10.90
2023-03-06T00:47:43.261Z,9.27
2023-03-06T00:50:11.220Z,8.52
2023-03-06T00:52:37.915Z,9.35
2023-03-06T00:55:05.633Z,11.85
2023-03-06T00:57:32.185Z,8.25
2023-03-06T00:59:58.955Z,7.53
2023-03-06T01:02:25.746Z,7.38
2023-03-06T01:04:52.387Z,9.90
2023-03-06T01:07:21.269Z,10.60
2023-03-06T01:09:47.911Z,9.63
2023-03-06T01:12:17.538Z,9.82
2023-03-06T01:14:45.719Z,9.27
2023-03-06T01:17:13.395Z,8.73
2023-03-06T01:19:40.019Z,8.18
2023-03-06T01:22:06.681Z,7.55
2023-03-06T01:24:33.347Z,8.93
2023-03-06T01:27:03.154Z,7.43
2023-03-06T01:29:29.823Z,7.40
2023-03-06T01:31:56.424Z,10.52
2023-03-06T01:34:24.313Z,7.55
2023-03-06T01:36:50.946Z,10.23
2023-03-06T01:39:17.537Z,9.70
2023-03-06T01:41:45.772Z,6.53
2023-03-06T01:44:13.857Z,7.93
2023-03-06T01:46:46.739Z,7.72
2023-03-06T01:49:21.190Z,6.35
2023-03-06T01:51:57.907Z,7.15
2023-03-06T01:54:27.714Z,8.23
2023-03-06T01:57:01.169Z,6.13
2023-03-06T01:59:28.825Z,8.10
2023-03-06T02:01:56.344Z,7.60
2023-03-06T02:04:23.745Z,6.85
2023-03-06T02:06:51.036Z,6.93
2023-03-06T02:09:17.776Z,10.27
2023-03-06T02:11:46.376Z,7.82
2023-03-06T02:14:17.508Z,7.40
2023-03-06T02:16:44.295Z,6.20
2023-03-06T02:19:37.866Z,5.32
2023-03-06T02:22:05.577Z,6.82
2023-03-06T02:25:20.395Z,5.97
2023-03-06T02:27:48.286Z,8.70
2023-03-06T02:30:16.978Z,6.97
2023-03-06T02:32:43.609Z,6.82
2023-03-06T02:35:19.189Z,7.68
2023-03-06T02:37:46.940Z,6.45
2023-03-06T02:40:14.856Z,7.38
2023-03-06T02:42:56.607Z,6.88
2023-03-06T02:45:29.970Z,7.43
2023-03-06T02:47:56.608Z,7.78
2023-03-06T02:50:23.309Z,6.93
2023-03-06T02:52:49.946Z,7.15
2023-03-06T02:55:16.597Z,7.85
2023-03-06T02:57:43.212Z,6.93
2023-03-06T03:00:10.602Z,7.28
2023-03-06T03:02:37.374Z,8.10
2023-03-06T03:05:05.858Z,8.07
2023-03-06T03:07:34.962Z,7.60
2023-03-06T03:10:01.869Z,6.03
2023-03-06T03:12:28.720Z,7.55
2023-03-06T03:14:56.378Z,7.68
2023-03-06T03:17:23.609Z,6.82
2023-03-06T03:19:50.596Z,6.13
2023-03-06T03:22:18.046Z,8.65
2023-03-06T03:24:44.660Z,6.55
2023-03-06T03:27:17.825Z,7.30
2023-03-06T03:29:45.589Z,7.60
2023-03-06T03:32:12.210Z,6.53
2023-03-06T03:34:38.914Z,8.00
2023-03-06T03:37:05.863Z,8.88
2023-03-06T03:39:35.606Z,6.03
2023-03-06T03:42:02.234Z,5.65
2023-03-06T03:47:10.867Z,6.85
2023-03-06T03:49:46.338Z,6.28
2023-03-06T03:52:12.894Z,7.30
2023-03-06T03:54:39.648Z,6.32
2023-03-06T03:57:06.242Z,8.55
2023-03-06T03:59:32.942Z,6.65
2023-03-06T04:01:59.675Z,9.43
2023-03-06T04:04:26.676Z,6.60
2023-03-06T04:06:53.502Z,7.90
2023-03-06T04:09:20.132Z,6.30
2023-03-06T04:11:47.894Z,6.82
2023-03-06T04:14:14.531Z,7.13
2023-03-06T04:16:41.255Z,7.43
2023-03-06T04:19:07.848Z,5.72
2023-03-06T04:21:34.440Z,7.40
2023-03-06T04:24:01.009Z,7.32
2023-03-06T04:26:27.557Z,9.13
2023-03-06T04:28:55.650Z,10.18
2023-03-06T04:31:22.362Z,7.47
2023-03-06T04:33:49.058Z,7.43
2023-03-06T04:36:24.432Z,6.63
2023-03-06T04:38:51.083Z,6.82
2023-03-06T04:41:17.882Z,6.65
2023-03-06T04:43:44.760Z,10.90
2023-03-06T04:46:12.453Z,7.22
2023-03-06T04:48:39.104Z,12.55
2023-03-06T04:51:06.231Z,6.85
2023-03-06T04:53:32.953Z,9.23
2023-03-06T04:56:00.020Z,7.75
2023-03-06T04:58:26.730Z,8.25
2023-03-06T05:00:53.407Z,9.50
2023-03-06T05:03:20.033Z,7.80
2023-03-06T05:05:47.062Z,11.02
2023-03-06T05:08:18.338Z,8.60
2023-03-06T05:10:45.947Z,7.65
2023-03-06T05:13:12.658Z,8.70
2023-03-06T05:15:42.197Z,8.98
2023-03-06T05:18:09.047Z,8.02
2023-03-06T05:20:35.762Z,9.02
2023-03-06T05:23:02.469Z,8.10
2023-03-06T05:25:29.036Z,6.70
2023-03-06T05:27:58.599Z,8.52
2023-03-06T05:30:25.793Z,7.97
2023-03-06T05:32:53.218Z,9.18
2023-03-06T05:35:23.136Z,7.68
2023-03-06T05:37:49.980Z,6.63
2023-03-06T05:40:17.742Z,11.73
2023-03-06T05:42:44.580Z,9.52
2023-03-06T05:45:11.902Z,9.15
2023-03-06T05:47:38.599Z,8.13
2023-03-06T05:50:05.468Z,13.63
2023-03-06T05:52:32.288Z,11.90
2023-03-06T05:54:58.857Z,8.70
2023-03-06T05:57:25.805Z,16.60
2023-03-06T05:59:52.527Z,9.73
2023-03-06T06:02:19.757Z,12.20
2023-03-06T06:04:46.342Z,8.40
2023-03-06T06:07:14.713Z,13.60
2023-03-06T06:09:43.392Z,13.15
2023-03-06T06:12:09.945Z,11.20
2023-03-06T06:14:36.639Z,11.75
2023-03-06T06:17:06.014Z,10.73
2023-03-06T06:19:32.796Z,10.30
2023-03-06T06:22:03.700Z,14.00
2023-03-06T06:24:31.420Z,15.40
2023-03-06T06:26:58.884Z,11.38
2023-03-06T06:29:27.200Z,11.10
2023-03-06T06:31:55.948Z,12.52
2023-03-06T06:34:23.371Z,14.00
2023-03-06T06:36:53.260Z,13.95
2023-03-06T06:39:23.885Z,11.47
2023-03-06T06:42:10.431Z,13.82
2023-03-06T06:44:44.435Z,14.80
2023-03-06T06:47:26.497Z,11.23
2023-03-06T06:49:55.296Z,13.07
2023-03-06T06:52:23.696Z,11.18
2023-03-06T06:54:52.400Z,11.20
2023-03-06T06:57:19.227Z,9.07
2023-03-06T06:59:45.865Z,12.38
2023-03-06T07:02:17.636Z,9.50
2023-03-06T07:05:00.659Z,10.27
2023-03-06T07:07:32.887Z,12.95
2023-03-06T07:09:59.696Z,9.10
2023-03-06T07:12:26.838Z,8.85
2023-03-06T07:14:55.996Z,12.00
2023-03-06T07:17:22.703Z,9.75
2023-03-06T07:19:49.777Z,12.07
2023-03-06T07:22:21.294Z,9.35
2023-03-06T07:24:48.277Z,10.85
2023-03-06T07:27:15.119Z,8.90
2023-03-06T07:29:45.063Z,10.30
2023-03-06T07:32:12.172Z,11.20
2023-03-06T07:34:39.187Z,10.30
2023-03-06T07:39:46.513Z,10.88
2023-03-06T07:42:14.053Z,11.35
2023-03-06T07:44:40.889Z,10.60
2023-03-06T07:47:10.127Z,10.95
2023-03-06T07:49:39.494Z,12.18
2023-03-06T07:52:06.302Z,10.70
2023-03-06T07:54:35.268Z,12.27
2023-03-06T07:57:03.043Z,19.08
2023-03-06T07:59:29.927Z,13.63
2023-03-06T08:01:57.762Z,11.07
2023-03-06T08:04:24.478Z,19.75
2023-03-06T08:07:11.913Z,13.93
2023-03-06T08:09:38.544Z,10.88
2023-03-06T08:12:05.458Z,11.13
2023-03-06T08:14:35.977Z,8.40
2023-03-06T08:17:03.781Z,11.90
2023-03-06T08:19:30.464Z,9.38
2023-03-06T08:21:57.218Z,8.48
2023-03-06T08:24:23.960Z,7.32
2023-03-06T08:26:51.572Z,12.85
2023-03-06T08:29:18.271Z,9.30
2023-03-06T08:31:46.533Z,7.93
2023-03-06T08:34:16.434Z,8.73
2023-03-06T08:36:43.277Z,7.78
2023-03-06T08:39:10.046Z,9.93
2023-03-06T08:41:38.342Z,6.38
2023-03-06T08:44:09.214Z,6.70
2023-03-06T08:46:35.856Z,6.50
2023-03-06T08:49:02.756Z,7.55
2023-03-06T08:51:29.565Z,6.63
2023-03-06T08:53:56.748Z,6.03
2023-03-06T08:56:31.701Z,7.82
2023-03-06T08:59:03.736Z,6.10
2023-03-06T09:01:32.808Z,8.02
2023-03-06T09:04:01.897Z,7.40
2023-03-06T09:06:34.192Z,7.15
2023-03-06T09:09:01.014Z,6.22
2023-03-06T09:11:28.807Z,6.15
2023-03-06T09:13:56.452Z,7.38
2023-03-06T09:16:24.116Z,5.75
2023-03-06T09:18:52.986Z,7.25
2023-03-06T09:21:21.579Z,7.40
2023-03-06T09:23:51.389Z,5.78
2023-03-06T09:26:18.681Z,6.60
2023-03-06T09:28:45.306Z,6.75
2023-03-06T09:31:15.804Z,6.32
2023-03-06T09:33:42.861Z,10.40
2023-03-06T09:36:14.618Z,6.50
2023-03-06T09:38:41.208Z,6.57
2023-03-06T09:41:32.029Z,6.78
2023-03-06T09:44:14.711Z,5.55
2023-03-06T09:47:17.426Z,5.70
2023-03-06T09:49:55.829Z,6.70
2023-03-06T09:52:49.432Z,5.70
2023-03-06T09:55:15.965Z,4.78
2023-03-06T09:57:52.567Z,5.45
2023-03-06T10:00:25.160Z,6.03
2023-03-06T10:03:06.644Z,5.25
2023-03-06T10:05:38.450Z,4.80
2023-03-06T10:08:51.536Z,4.97
2023-03-06T10:11:38.299Z,6.22
2023-03-06T10:14:35.845Z,7.47
2023-03-06T10:17:02.839Z,5.55
2023-03-06T10:19:34.824Z,4.80
2023-03-06T10:24:49.456Z,5.80
2023-03-06T10:27:38.009Z,7.40
2023-03-06T10:30:10.925Z,5.25
2023-03-06T10:32:49.022Z,5.30
2023-03-06T10:35:20.056Z,5.20
2023-03-06T10:37:46.751Z,5.68
2023-03-06T10:40:17.272Z,4.93
2023-03-06T10:42:44.076Z,6.82
2023-03-06T10:45:14.882Z,5.00
2023-03-06T10:47:42.089Z,7.68
2023-03-06T10:50:22.686Z,5.22
2023-03-06T10:53:05.841Z,6.82
2023-03-06T10:55:36.437Z,6.38
2023-03-06T10:58:35.749Z,4.18
2023-03-06T11:01:17.348Z,7.15
2023-03-06T11:03:44.223Z,4.25
2023-03-06T11:06:37.146Z,5.30
2023-03-06T11:09:24.467Z,5.25
2023-03-06T11:12:22.680Z,5.75
2023-03-06T11:15:07.649Z,5.32
2023-03-06T11:17:55.360Z,4.88
2023-03-06T11:20:41.262Z,4.95
2023-03-06T11:23:42.589Z,4.70
2023-03-06T11:26:20.134Z,5.93
2023-03-06T11:29:13.530Z,5.72
2023-03-06T11:32:08.479Z,6.82
2023-03-06T11:34:58.109Z,8.30
2023-03-06T11:37:48.235Z,4.50
2023-03-06T11:40:24.024Z,7.00
2023-03-06T11:43:05.942Z,5.50
2023-03-06T11:48:26.235Z,5.28
2023-03-06T11:51:15.110Z,4.28
2023-03-06T11:53:41.890Z,4.28
2023-03-06T11:56:32.293Z,4.95
2023-03-06T11:59:08.033Z,5.38
2023-03-06T12:01:49.668Z,6.75
2023-03-06T12:04:46.481Z,6.10
2023-03-06T12:07:21.961Z,6.13
2023-03-06T12:09:56.136Z,4.30
2023-03-06T12:12:38.184Z,5.93
2023-03-06T12:15:08.081Z,9.05
2023-03-06T12:17:51.511Z,6.65
2023-03-06T12:20:39.362Z,5.55
2023-03-06T12:23:24.523Z,5.53
2023-03-06T12:26:29.842Z,4.90
2023-03-06T12:29:30.421Z,5.95
2023-03-06T12:32:22.068Z,4.85
2023-03-06T12:34:57.558Z,5.68
2023-03-06T12:37:32.038Z,5.20
2023-03-06T12:40:16.774Z,5.57
2023-03-06T12:42:58.640Z,6.53
2023-03-06T12:45:33.892Z,5.43
2023-03-06T12:48:06.080Z,7.78
2023-03-06T12:50:38.113Z,6.10
2023-03-06T12:53:14.589Z,6.75
2023-03-06T12:55:48.720Z,5.45
2023-03-06T12:58:57.240Z,5.78
2023-03-06T13:01:51.448Z,8.88
2023-03-06T13:04:32.296Z,5.90
2023-03-06T13:07:01.944Z,5.22
2023-03-06T13:10:13.313Z,5.32
2023-03-06T13:13:14.027Z,5.55
2023-03-06T13:16:33.290Z,6.10
2023-03-06T13:19:19.025Z,5.05
2023-03-06T13:24:44.021Z,5.15
2023-03-06T13:27:13.234Z,6.90
2023-03-06T13:29:39.786Z,9.60
2023-03-06T13:32:16.669Z,8.13
2023-03-06T13:34:48.557Z,6.57
2023-03-06T13:37:23.698Z,6.50
2023-03-06T13:40:40.653Z,7.25
2023-03-06T13:43:09.947Z,5.95
2023-03-06T13:45:45.071Z,6.55
2023-03-06T13:48:45.062Z,9.27
2023-03-06T13:51:22.920Z,5.55
2023-03-06T13:54:13.951Z,6.25
2023-03-06T13:57:15.222Z,5.30
2023-03-06T14:00:19.389Z,5.78
2023-03-06T14:03:01.134Z,7.50
2023-03-06T14:05:48.397Z,5.10
2023-03-06T14:08:21.980Z,6.88
2023-03-06T14:10:59.825Z,5.22
2023-03-06T14:13:35.191Z,7.00
2023-03-06T14:16:13.274Z,5.80
2023-03-06T14:18:51.110Z,5.45
2023-03-06T14:21:34.876Z,5.00
2023-03-06T14:24:03.633Z,6.10
2023-03-06T14:26:39.544Z,6.63
2023-03-06T14:29:21.420Z,8.13
2023-03-06T14:31:59.288Z,7.63
2023-03-06T14:34:31.319Z,5.75
2023-03-06T14:37:05.490Z,6.40
2023-03-06T14:39:39.810Z,5.32
2023-03-06T14:42:17.080Z,4.40
2023-03-06T14:44:44.317Z,7.57
2023-03-06T14:47:27.410Z,5.65
2023-03-06T14:50:19.328Z,5.47
2023-03-06T14:52:46.165Z,4.60
2023-03-06T14:55:19.139Z,7.60
2023-03-06T14:57:48.176Z,6.95
2023-03-06T15:00:22.986Z,6.35
2023-03-06T15:02:51.740Z,6.35
2023-03-06T15:05:24.921Z,6.68
2023-03-06T15:07:52.858Z,7.07
2023-03-06T15:10:31.291Z,6.40
2023-03-06T15:13:25.910Z,5.70
2023-03-06T15:16:07.068Z,6.32
2023-03-06T15:18:39.253Z,6.67
2023-03-06T15:21:07.844Z,5.95
2023-03-06T15:23:40.215Z,7.25
2023-03-06T15:26:29.238Z,5.57
2023-03-06T15:29:09.073Z,5.53
2023-03-06T15:31:47.300Z,7.05
2023-03-06T15:34:16.125Z,5.55
2023-03-06T15:36:47.365Z,6.63
2023-03-06T15:39:39.857Z,7.05
2023-03-06T15:42:24.981Z,8.55
2023-03-06T15:44:56.233Z,7.20
2023-03-06T15:47:23.727Z,4.78
2023-03-06T15:49:53.217Z,5.57
2023-03-06T15:52:21.700Z,7.40
2023-03-06T15:54:48.403Z,6.88
2023-03-06T15:57:28.270Z,7.47
2023-03-06T15:59:56.257Z,7.22
2023-03-06T16:02:25.626Z,10.82
2023-03-06T16:04:52.516Z,5.55
2023-03-06T16:07:21.865Z,5.15
2023-03-06T16:09:48.546Z,7.65
2023-03-06T16:12:16.190Z,7.57
2023-03-06T16:14:42.933Z,5.70
2023-03-06T16:17:12.454Z,4.53
2023-03-06T16:19:39.532Z,5.22
2023-03-06T16:22:06.298Z,6.05
2023-03-06T16:24:34.362Z,5.25
2023-03-06T16:27:01.916Z,6.30
2023-03-06T16:29:29.441Z,5.68
2023-03-06T16:31:57.436Z,8.90
2023-03-06T16:34:24.334Z,6.18
2023-03-06T16:36:53.615Z,6.38
2023-03-06T16:39:22.273Z,6.00
2023-03-06T16:41:49.706Z,8.38
2023-03-06T16:44:16.637Z,8.38
2023-03-06T16:46:48.346Z,7.00
2023-03-06T16:49:23.734Z,8.63
2023-03-06T16:51:51.066Z,4.90
2023-03-06T16:54:17.954Z,6.85
2023-03-06T16:56:45.124Z,4.95
2023-03-06T16:59:12.521Z,8.38
2023-03-06T17:01:40.741Z,8.93
2023-03-06T17:04:07.768Z,9.23
2023-03-06T17:06:34.462Z,7.50
2023-03-06T17:09:01.067Z,6.70
2023-03-06T17:11:27.770Z,8.95
2023-03-06T17:13:55.328Z,6.25
2023-03-06T17:16:22.288Z,8.73
2023-03-06T17:18:49.647Z,9.02
2023-03-06T17:21:16.769Z,6.53
2023-03-06T17:23:44.585Z,5.55
2023-03-06T17:26:20.033Z,5.28
2023-03-06T17:28:47.461Z,7.85
2023-03-06T17:31:18.366Z,7.28
2023-03-06T17:33:45.513Z,8.80
2023-03-06T17:36:14.486Z,6.45
2023-03-06T17:38:41.845Z,5.97
2023-03-06T17:41:11.814Z,5.30
2023-03-06T17:43:39.470Z,5.18
2023-03-06T17:46:08.451Z,6.82
2023-03-06T17:48:35.681Z,6.55
2023-03-06T17:51:03.427Z,5.60
2023-03-06T17:53:30.149Z,5.45
2023-03-06T17:55:59.775Z,5.03
2023-03-06T17:58:27.075Z,6.03
2023-03-06T18:00:53.851Z,5.75
2023-03-06T18:03:20.776Z,7.85
2023-03-06T18:05:47.310Z,9.35
2023-03-06T18:08:13.888Z,7.47
2023-03-06T18:10:41.576Z,7.40
2023-03-06T18:13:09.212Z,6.65
2023-03-06T18:15:40.066Z,7.35
2023-03-06T18:18:07.664Z,6.63
2023-03-06T18:20:34.919Z,6.32
2023-03-06T18:23:03.697Z,7.10
2023-03-06T18:25:31.678Z,5.47
2023-03-06T18:27:58.721Z,4.25
2023-03-06T18:30:25.687Z,6.75
2023-03-06T18:32:52.541Z,7.60
2023-03-06T18:35:19.290Z,7.82
2023-03-06T18:37:46.011Z,6.60
2023-03-06T18:40:13.134Z,6.55
2023-03-06T18:42:39.723Z,4.70
2023-03-06T18:45:07.013Z,6.40
2023-03-06T18:47:33.815Z,7.40
2023-03-06T18:50:00.426Z,4.70
2023-03-06T18:52:27.085Z,4.97
2023-03-06T18:54:53.756Z,6.45
2023-03-06T18:57:20.564Z,5.63
2023-03-06T18:59:50.323Z,5.53
2023-03-06T19:02:17.336Z,6.50
2023-03-06T19:04:44.135Z,6.28
2023-03-06T19:07:13.263Z,4.43
2023-03-06T19:09:43.978Z,4.93
2023-03-06T19:12:16.193Z,6.25
2023-03-06T19:14:48.504Z,7.32
2023-03-06T19:17:15.449Z,5.47
2023-03-06T19:19:42.538Z,5.72
2023-03-06T19:22:10.234Z,5.45
2023-03-06T19:24:36.859Z,7.40
2023-03-06T19:27:03.403Z,6.03
2023-03-06T19:29:29.964Z,5.57
2023-03-06T19:31:57.536Z,7.13
2023-03-06T19:34:24.283Z,10.63
2023-03-06T19:36:54.109Z,8.13
2023-03-06T19:39:20.828Z,8.38
2023-03-06T19:41:47.921Z,7.57
2023-03-06T19:44:16.328Z,7.60
2023-03-06T19:46:43.741Z,7.50
2023-03-06T19:49:16.950Z,7.63
2023-03-06T19:51:43.969Z,8.40
2023-03-06T19:54:12.216Z,7.53
2023-03-06T19:56:38.940Z,6.90
2023-03-06T19:59:05.648Z,7.45
2023-03-06T20:01:34.289Z,7.63
2023-03-06T20:04:01.434Z,7.53
2023-03-06T20:06:31.357Z,8.93
2023-03-06T20:08:58.064Z,10.85
2023-03-06T20:11:27.992Z,9.07
2023-03-06T20:13:54.715Z,10.00
2023-03-06T20:16:21.301Z,7.68
2023-03-06T20:18:50.196Z,10.43
2023-03-06T20:21:17.023Z,8.63
2023-03-06T20:23:46.157Z,9.80
2023-03-06T20:26:14.302Z,10.02
2023-03-06T20:28:41.914Z,8.07
2023-03-06T20:31:17.192Z,8.13
2023-03-06T20:33:45.174Z,8.73
2023-03-06T20:36:13.231Z,8.05
2023-03-06T20:38:40.039Z,9.80
2023-03-06T20:41:09.372Z,8.25
2023-03-06T20:43:36.062Z,9.20
2023-03-06T20:46:04.175Z,9.45
2023-03-06T20:48:30.860Z,10.38
2023-03-06T20:51:06.149Z,12.02
2023-03-06T20:53:35.568Z,11.10
2023-03-06T20:56:02.572Z,8.90
2023-03-06T20:58:32.573Z,9.02
2023-03-06T21:01:02.002Z,10.60
2023-03-06T21:03:29.334Z,8.93
2023-03-06T21:05:56.945Z,10.23
2023-03-06T21:08:26.081Z,9.55
2023-03-06T21:10:55.806Z,9.63
2023-03-06T21:13:22.631Z,10.02
2023-03-06T21:15:52.617Z,9.20
2023-03-06T21:18:31.444Z,7.93
2023-03-06T21:20:58.222Z,9.40
2023-03-06T21:23:25.054Z,10.30
2023-03-06T21:25:52.886Z,8.95
2023-03-06T21:28:26.225Z,10.20
2023-03-06T21:30:52.870Z,10.13
2023-03-06T21:33:27.116Z,9.18
2023-03-06T21:35:59.227Z,7.35
2023-03-06T21:38:26.055Z,7.80
2023-03-06T21:40:52.731Z,8.90
2023-03-06T21:43:21.127Z,7.80
2023-03-06T21:45:49.782Z,11.18
2023-03-06T21:48:17.408Z,8.38
2023-03-06T21:50:44.336Z,9.00
2023-03-06T21:53:11.144Z,10.70
2023-03-06T21:55:46.658Z,7.05
2023-03-06T21:58:13.529Z,9.35
2023-03-06T22:00:40.796Z,9.00
2023-03-06T22:03:09.943Z,6.97
2023-03-06T22:05:36.603Z,9.55
2023-03-06T22:08:05.256Z,10.95
2023-03-06T22:10:31.789Z,8.38
2023-03-06T22:12:58.359Z,11.90
2023-03-06T22:15:27.823Z,9.20
2023-03-06T22:17:58.400Z,10.40
2023-03-06T22:20:25.174Z,9.25
2023-03-06T22:22:51.822Z,8.57
2023-03-06T22:25:18.643Z,11.38
2023-03-06T22:27:45.822Z,9.27
2023-03-06T22:30:13.279Z,8.35
2023-03-06T22:32:40.004Z,8.77
2023-03-06T22:35:13.400Z,7.28
2023-03-06T22:37:42.879Z,8.73
2023-03-06T22:40:10.666Z,6.70
2023-03-06T22:42:37.376Z,9.00
2023-03-06T22:45:04.586Z,8.10
2023-03-06T22:47:31.177Z,7.25
2023-03-06T22:49:57.985Z,6.82
2023-03-06T22:52:27.651Z,6.70
2023-03-06T22:54:57.880Z,6.63
2023-03-06T22:57:24.605Z,11.52
2023-03-06T22:59:51.381Z,7.95
2023-03-06T23:02:27.189Z,8.93
2023-03-06T23:04:53.893Z,10.57
2023-03-06T23:07:23.700Z,9.18
2023-03-06T23:09:53.714Z,9.75
2023-03-06T23:12:20.349Z,7.45
2023-03-06T23:14:49.747Z,10.00
2023-03-06T23:17:19.378Z,8.07
2023-03-06T23:19:49.329Z,11.02
2023-03-06T23:22:16.151Z,10.60
2023-03-06T23:24:42.963Z,11.82
2023-03-06T23:27:09.776Z,11.27
2023-03-06T23:29:37.482Z,10.70
2023-03-06T23:32:04.500Z,11.20
2023-03-06T23:34:31.068Z,10.75
2023-03-06T23:36:57.634Z,9.00
2023-03-06T23:39:24.164Z,10.40
2023-03-06T23:41:50.698Z,10.15
2023-03-06T23:44:17.318Z,10.35
2023-03-06T23:46:43.845Z,7.07
2023-03-06T23:49:10.828Z,6.90
2023-03-06T23:51:37.405Z,8.98
2023-03-06T23:54:04.101Z,7.70
2023-03-06T23:56:30.592Z,7.45
2023-03-06T23:58:57.204Z,10.02
